Madison, MN

8:38 AM CST on January 18, 2018 (GMT -0600)
Madison-Lac Qui Parle County

Weather History for KDXX - April, 2014

Change the Weather History Date:

Tuesday, April 15, 2014

  Actual Average (KAQP) Record (KAQP)
Temperature  
Mean Temperature 30 °F -  
Max Temperature 42 °F 52 °F 77 °F (2004)
Min Temperature 17 °F 31 °F 14 °F (2014)
Degree Days  
Heating Degree Days 36    
Moisture  
Dew Point 15 °F    
Average Humidity 55    
Maximum Humidity 86    
Minimum Humidity 27    
Precipitation  
Precipitation 0.00 in - - ()
Sea Level Pressure  
Sea Level Pressure 30.07 in    
Wind  
Wind Speed 7 mph (ESE)    
Max Wind Speed 22 mph    
Max Gust Speed 29 mph    
Visibility 10 miles    
Events      
Averages and records for this station are not official NWS values.
T = Trace of Precipitation, MM = Missing Value Source: NWS Daily Summary

Daily Weather History Graph

Daily Weather History Graph

Search for Another Location

Airport or City:

Trip Planner

Search our weather history database for the weather conditions in past years. The results will help you decide how hot, cold, wet, or windy it might be!

Date:

Astronomy

Apr. 15, 2014 Rise Set
Actual Time 6:39 AM CDT 8:10 PM CDT
Civil Twilight 6:09 AM CDT 8:41 PM CDT
Nautical Twilight 5:32 AM CDT 9:18 PM CDT
Astronomical Twilight 4:52 AM CDT 9:58 PM CDT
Moon 8:54 PM CDT (4/15) 6:48 AM CDT (4/15)
Length of Visible Light 14h 31m
Length of Day
13h 30m
Full, 100% of the Moon is Illuminated
Apr 15
Full
Apr 22
Last Quarter
Apr 29
New
May 6
First Quarter
May 14
Full

Hourly Weather History & Observations

Time (CDT) Temp. Windchill Dew Point Humidity Pressure Visibility Wind Dir Wind Speed Gust Speed Precip Events Conditions
12:13 AM 24.8 °F 16.1 °F 17.6 °F 74% 30.20 in 10.0 mi North 8.1 mph - N/A   Clear
12:34 AM 24.8 °F 17.9 °F 17.6 °F 74% 30.20 in 10.0 mi North 5.8 mph - N/A   Clear
12:54 AM 23.0 °F 17.0 °F 17.6 °F 80% 30.21 in 10.0 mi NNW 4.6 mph - N/A   Clear
1:13 AM 21.2 °F 13.6 °F 17.6 °F 86% 30.20 in 10.0 mi NNW 5.8 mph - N/A   Clear
1:34 AM 23.0 °F 15.8 °F 15.8 °F 74% 30.20 in 10.0 mi North 5.8 mph - N/A   Clear
1:53 AM 21.2 °F 14.9 °F 15.8 °F 80% 30.20 in 10.0 mi NNW 4.6 mph - N/A   Clear
2:14 AM 21.2 °F 14.9 °F 15.8 °F 80% 30.20 in 10.0 mi NNW 4.6 mph - N/A   Clear
2:34 AM 21.2 °F 14.9 °F 15.8 °F 80% 30.20 in 10.0 mi NNW 4.6 mph - N/A   Clear
2:53 AM 21.2 °F 13.6 °F 15.8 °F 80% 30.20 in 10.0 mi NNW 5.8 mph - N/A   Clear
3:14 AM 19.4 °F 14.3 °F 15.8 °F 86% 30.20 in 10.0 mi WNW 3.5 mph - N/A   Clear
3:34 AM 19.4 °F 12.8 °F 15.8 °F 86% 30.20 in 10.0 mi NW 4.6 mph - N/A   Clear
3:53 AM 19.4 °F 14.3 °F 15.8 °F 86% 30.20 in 10.0 mi NW 3.5 mph - N/A   Clear
4:14 AM 19.4 °F - 15.8 °F 86% 30.19 in 10.0 mi Calm Calm - N/A   Clear
4:34 AM 19.4 °F - 15.8 °F 86% 30.18 in 10.0 mi Calm Calm - N/A   Clear
4:53 AM 19.4 °F - 15.8 °F 86% 30.17 in 10.0 mi Calm Calm - N/A   Clear
5:14 AM 19.4 °F - 15.8 °F 86% 30.17 in 10.0 mi Calm Calm - N/A   Clear
5:34 AM 19.4 °F - 15.8 °F 86% 30.17 in 10.0 mi Calm Calm - N/A   Clear
5:53 AM 19.4 °F - 14.0 °F 80% 30.17 in 10.0 mi Calm Calm - N/A   Clear
6:14 AM 17.6 °F 9.3 °F 14.0 °F 86% 30.19 in 10.0 mi West 5.8 mph - N/A   Clear
6:53 AM 17.6 °F 12.3 °F 14.0 °F 86% 30.19 in 10.0 mi West 3.5 mph - N/A   Clear
7:14 AM 17.6 °F 12.3 °F 14.0 °F 86% 30.20 in 10.0 mi West 3.5 mph - N/A   Clear
7:33 AM 19.4 °F 14.3 °F 15.8 °F 86% 30.20 in 10.0 mi West 3.5 mph - N/A   Clear
7:54 AM 21.2 °F 16.4 °F 15.8 °F 80% 30.20 in 10.0 mi WNW 3.5 mph - N/A   Clear
8:14 AM 21.2 °F - 14.0 °F 74% 30.20 in 10.0 mi Calm Calm - N/A   Clear
8:34 AM 23.0 °F - 14.0 °F 68% 30.19 in 10.0 mi Calm Calm - N/A   Clear
8:54 AM 23.0 °F - 12.2 °F 63% 30.20 in 10.0 mi Calm Calm - N/A   Clear
9:13 AM 24.8 °F - 12.2 °F 59% 30.19 in 10.0 mi Calm Calm - N/A   Clear
9:34 AM 24.8 °F - 12.2 °F 59% 30.18 in 10.0 mi Calm Calm - N/A   Clear
9:54 AM 26.6 °F - 12.2 °F 55% 30.17 in 10.0 mi Calm Calm - N/A   Clear
10:13 AM 28.4 °F - 14.0 °F 55% 30.16 in 10.0 mi Calm Calm - N/A   Clear
10:34 AM 28.4 °F - 14.0 °F 55% 30.15 in 10.0 mi Calm Calm - N/A   Clear
10:53 AM 28.4 °F - 14.0 °F 55% 30.15 in 10.0 mi Calm Calm - N/A   Clear
11:13 AM 30.2 °F 25.4 °F 12.2 °F 47% 30.14 in 10.0 mi South 4.6 mph - N/A   Clear
11:53 AM 30.2 °F 25.4 °F 14.0 °F 51% 30.12 in 10.0 mi SSE 4.6 mph - N/A   Clear
12:13 PM 33.8 °F 30.8 °F 12.2 °F 41% 30.11 in 10.0 mi SE 3.5 mph - N/A   Clear
12:34 PM 33.8 °F 27.0 °F 12.2 °F 41% 30.10 in 10.0 mi SE 8.1 mph - N/A   Clear
12:54 PM 35.6 °F 32.8 °F 12.2 °F 38% 30.08 in 10.0 mi South 3.5 mph - N/A   Clear
1:13 PM 35.6 °F 29.2 °F 12.2 °F 38% 30.07 in 10.0 mi SE 8.1 mph - N/A   Clear
1:34 PM 37.4 °F 31.4 °F 14.0 °F 38% 30.06 in 10.0 mi SSE 8.1 mph - N/A   Clear
1:54 PM 37.4 °F 31.4 °F 12.2 °F 36% 30.05 in 10.0 mi SSE 8.1 mph - N/A   Scattered Clouds
2:13 PM 37.4 °F 30.3 °F 10.4 °F 33% 30.04 in 10.0 mi SSE 10.4 mph - N/A   Scattered Clouds
2:34 PM 39.2 °F 34.2 °F 10.4 °F 31% 30.02 in 10.0 mi South 6.9 mph 16.1 mph N/A   Scattered Clouds
2:53 PM 39.2 °F 32.5 °F 10.4 °F 31% 30.01 in 10.0 mi SE 10.4 mph - N/A   Scattered Clouds
3:13 PM 41.0 °F 35.8 °F 10.4 °F 29% 30.01 in 10.0 mi SSE 8.1 mph - N/A   Scattered Clouds
3:34 PM 41.0 °F 34.3 °F 10.4 °F 29% 29.99 in 10.0 mi SE 11.5 mph 18.4 mph N/A   Clear
3:54 PM 42.8 °F 35.1 °F 12.2 °F 29% 29.98 in 10.0 mi SE 16.1 mph - N/A   Clear
4:13 PM 42.8 °F 35.4 °F 12.2 °F 29% 29.98 in 10.0 mi SE 15.0 mph - N/A   Clear
4:34 PM 42.8 °F 34.5 °F 10.4 °F 27% 29.97 in 10.0 mi ESE 18.4 mph 21.9 mph N/A   Scattered Clouds
4:54 PM 42.8 °F 35.4 °F 12.2 °F 29% 29.96 in 10.0 mi ESE 15.0 mph - N/A   Scattered Clouds
5:13 PM 42.8 °F 35.1 °F 12.2 °F 29% 29.95 in 10.0 mi ESE 16.1 mph - N/A   Scattered Clouds
5:34 PM 42.8 °F 34.8 °F 12.2 °F 29% 29.94 in 10.0 mi ESE 17.3 mph 23.0 mph N/A   Scattered Clouds
5:54 PM 42.8 °F 34.8 °F 12.2 °F 29% 29.93 in 10.0 mi ESE 17.3 mph 21.9 mph N/A   Mostly Cloudy
6:13 PM 41.0 °F 31.9 °F 12.2 °F 31% 29.93 in 10.0 mi ESE 19.6 mph 24.2 mph N/A   Scattered Clouds
6:34 PM 41.0 °F 32.2 °F 14.0 °F 33% 29.93 in 10.0 mi ESE 18.4 mph - N/A   Scattered Clouds
6:54 PM 41.0 °F 31.9 °F 15.8 °F 36% 29.92 in 10.0 mi ESE 19.6 mph 26.5 mph N/A   Scattered Clouds
7:13 PM 41.0 °F 31.9 °F 15.8 °F 36% 29.92 in 10.0 mi ESE 19.6 mph 23.0 mph N/A   Scattered Clouds
7:34 PM 39.2 °F 30.2 °F 15.8 °F 39% 29.91 in 10.0 mi ESE 17.3 mph 24.2 mph N/A   Clear
7:53 PM 39.2 °F 30.5 °F 15.8 °F 39% 29.91 in 10.0 mi ESE 16.1 mph 24.2 mph N/A   Scattered Clouds
8:13 PM 39.2 °F 30.5 °F 15.8 °F 39% 29.91 in 10.0 mi ESE 16.1 mph 23.0 mph N/A   Scattered Clouds
8:34 PM 39.2 °F 29.8 °F 17.6 °F 42% 29.90 in 10.0 mi East 18.4 mph - N/A   Scattered Clouds
8:53 PM 37.4 °F 27.5 °F 17.6 °F 45% 29.91 in 10.0 mi East 18.4 mph 23.0 mph N/A   Clear
9:14 PM 37.4 °F 26.9 °F 17.6 °F 45% 29.91 in 10.0 mi ESE 20.7 mph - N/A   Clear
9:34 PM 37.4 °F 26.9 °F 17.6 °F 45% 29.91 in 10.0 mi ESE 20.7 mph - N/A   Clear
9:53 PM 37.4 °F 26.9 °F 17.6 °F 45% 29.91 in 10.0 mi ESE 20.7 mph 26.5 mph N/A   Clear
10:13 PM 37.4 °F 26.6 °F 17.6 °F 45% 29.91 in 10.0 mi ESE 21.9 mph 26.5 mph N/A   Clear
10:34 PM 37.4 °F 26.9 °F 17.6 °F 45% 29.90 in 10.0 mi ESE 20.7 mph 26.5 mph N/A   Scattered Clouds
10:53 PM 37.4 °F 27.2 °F 19.4 °F 48% 29.89 in 10.0 mi ESE 19.6 mph 28.8 mph N/A   Clear
11:14 PM 37.4 °F 27.2 °F 19.4 °F 48% 29.89 in 10.0 mi ESE 19.6 mph 26.5 mph N/A   Clear
11:34 PM 37.4 °F 26.9 °F 19.4 °F 48% 29.88 in 10.0 mi ESE 20.7 mph 27.6 mph N/A   Clear
11:53 PM 37.4 °F 26.9 °F 19.4 °F 48% 29.88 in 10.0 mi ESE 20.7 mph 26.5 mph N/A   Scattered Clouds